BIMK weather

Múlakot Airport
Múlakot, Southern Region, Iceland

Public forecast

Using degrees Celsius for public forecast. Weather courtesy of forecast.io.

Closest aviation weather report (METAR) to Múlakot Airport

Report is more than 2 hours old.

Closest report is Vestmannaeyjar Airport, 20.4 nm (37.8 km) SSW. Retrieved 2019/10/20 18:00 UTC (5 hours ago):

BIVM 201800Z 17025KT 6000 +RA BR BKN008 OVC013 07/07 Q1007

Closest aviation forecast (TAF) to Múlakot Airport

Closest forecast is Reykjavik Airport, 59.9 nm (110.9 km) WNW. Retrieved 2019/10/20 21:33 UTC (2 hours ago):

TAF BIRK 201931Z 2021/2121 18020G30KT 9999 -RADZ BKN017 OVC025 TX09/2021Z TN03/2121Z TEMPO 2021/2101 3000 RA BR OVC008 BECMG 2101/2103 28012KT -SHRA SCT020 BKN030 BECMG 2110/2112 36015KT BKN035 BECMG 2118/2121 02017G27KT